Time;durP1;ratioP1;P1;durP2;ratioP2;P2;SDS_P1;SDS_P2;PMS_P1;PMS_P2;Temp;Humidity;BMP_temperature;BMP_pressure;BME280_temperature;BME280_humidity;BME280_pressure;Samples;Min_cycle;Max_cycle;Signal;HPM_P1;HPM_P2
2024/01/13 00:02:21;;;;;;;37.67;18.20;;;3.50;99.90;;;;;;5068437;28;20020;-75
2024/01/13 00:04:46;;;;;;;33.17;15.25;;;3.50;99.90;;;;;;5085817;28;20069;-75
2024/01/13 00:07:12;;;;;;;40.28;19.38;;;3.40;99.90;;;;;;5068399;28;20035;-75
2024/01/13 00:09:38;;;;;;;33.97;18.10;;;3.50;99.90;;;;;;5068884;28;20415;-75
2024/01/13 00:12:04;;;;;;;34.33;19.40;;;3.50;99.90;;;;;;5086386;28;20028;-75
2024/01/13 00:14:30;;;;;;;35.00;18.10;;;3.50;99.90;;;;;;5087126;28;20024;-75
2024/01/13 00:16:55;;;;;;;31.83;17.50;;;3.50;99.90;;;;;;5086204;28;20028;-75
2024/01/13 00:19:21;;;;;;;37.35;17.90;;;3.50;99.90;;;;;;5072875;28;20020;-75
2024/01/13 00:21:47;;;;;;;45.42;19.10;;;3.50;99.90;;;;;;5086550;28;20115;-75
2024/01/13 00:24:12;;;;;;;35.40;17.67;;;3.50;99.90;;;;;;5086917;28;20377;-75
2024/01/13 00:26:38;;;;;;;32.55;18.42;;;3.50;99.90;;;;;;5087089;28;20024;-74
2024/01/13 00:29:04;;;;;;;39.45;20.98;;;3.50;99.90;;;;;;5085902;28;20099;-75
2024/01/13 00:31:29;;;;;;;31.95;18.08;;;3.50;99.90;;;;;;5087081;28;20074;-75
2024/01/13 00:33:55;;;;;;;48.58;22.52;;;3.50;99.90;;;;;;5086039;28;20496;-75
2024/01/13 00:36:21;;;;;;;53.10;23.45;;;3.50;99.90;;;;;;5086916;28;20032;-75
2024/01/13 00:38:47;;;;;;;50.92;22.85;;;3.50;99.90;;;;;;5085983;28;20103;-75
2024/01/13 00:41:12;;;;;;;64.32;23.88;;;3.50;99.90;;;;;;5086682;28;20069;-75
2024/01/13 00:43:38;;;;;;;49.17;22.73;;;3.50;99.90;;;;;;5086453;28;20114;-76
2024/01/13 00:46:04;;;;;;;75.65;28.10;;;3.50;99.90;;;;;;5085818;28;20502;-76
2024/01/13 00:48:30;;;;;;;75.20;27.08;;;3.50;99.90;;;;;;5067610;28;20028;-76
2024/01/13 00:50:56;;;;;;;77.03;28.25;;;3.50;99.90;;;;;;5086348;28;20529;-76
2024/01/13 00:53:21;;;;;;;100.68;32.47;;;3.50;99.90;;;;;;5085443;28;20264;-76
2024/01/13 00:55:47;;;;;;;85.75;26.70;;;3.60;99.90;;;;;;5085602;28;20066;-75
2024/01/13 00:58:13;;;;;;;98.75;26.05;;;3.60;99.90;;;;;;5085888;28;20039;-76
2024/01/13 01:00:39;;;;;;;85.68;27.27;;;3.60;99.90;;;;;;5086364;28;20035;-76
2024/01/13 01:03:04;;;;;;;71.53;27.35;;;3.60;99.90;;;;;;5085028;28;20416;-75
2024/01/13 01:05:30;;;;;;;78.50;26.80;;;3.60;99.90;;;;;;5067492;28;20040;-75
2024/01/13 01:07:55;;;;;;;91.55;29.05;;;3.60;99.90;;;;;;5085502;28;20134;-75
2024/01/13 01:10:21;;;;;;;117.35;31.23;;;3.60;99.90;;;;;;5086219;28;20381;-76
2024/01/13 01:12:47;;;;;;;126.28;31.08;;;3.60;99.90;;;;;;5085212;28;20031;-76
2024/01/13 01:15:13;;;;;;;77.68;27.33;;;3.60;99.90;;;;;;5068144;28;20036;-76
2024/01/13 01:17:38;;;;;;;107.53;30.70;;;3.60;99.90;;;;;;5085422;28;20644;-76
2024/01/13 01:20:05;;;;;;;127.55;31.92;;;3.60;99.90;;;;;;5067482;28;20024;-75
2024/01/13 01:22:30;;;;;;;137.68;33.03;;;3.60;99.90;;;;;;5085103;28;20016;-75
2024/01/13 01:24:56;;;;;;;147.68;35.63;;;3.60;99.90;;;;;;5085606;28;20047;-75
2024/01/13 01:27:22;;;;;;;104.18;29.58;;;3.60;99.90;;;;;;5085245;28;20024;-75
2024/01/13 01:29:47;;;;;;;126.30;31.42;;;3.60;99.90;;;;;;5085638;28;20012;-75
2024/01/13 01:32:13;;;;;;;117.18;30.13;;;3.60;99.90;;;;;;5085275;28;20028;-78
2024/01/13 01:34:39;;;;;;;116.00;29.98;;;3.60;99.90;;;;;;5085534;28;20092;-75
2024/01/13 01:37:04;;;;;;;87.90;30.00;;;3.60;99.90;;;;;;5085038;28;20101;-76
2024/01/13 01:39:30;;;;;;;110.88;28.52;;;3.60;99.90;;;;;;5085722;28;20491;-75
2024/01/13 01:41:55;;;;;;;112.85;30.83;;;3.60;99.90;;;;;;5086160;28;20032;-76
2024/01/13 01:44:21;;;;;;;111.35;29.15;;;3.60;99.90;;;;;;5066774;28;20583;-75
2024/01/13 01:46:48;;;;;;;86.15;27.40;;;3.60;99.90;;;;;;5085723;28;20545;-75
2024/01/13 01:49:22;;;;;;;112.53;28.65;;;3.60;99.90;;;;;;5085392;28;20154;-75
2024/01/13 01:51:48;;;;;;;116.10;30.85;;;3.60;99.90;;;;;;5071957;28;20484;-75
2024/01/13 01:54:14;;;;;;;88.93;28.52;;;3.60;99.90;;;;;;5085182;28;20035;-75
2024/01/13 01:56:40;;;;;;;79.60;27.77;;;3.60;99.90;;;;;;5085647;28;20097;-75
2024/01/13 01:59:06;;;;;;;68.53;27.38;;;3.50;99.90;;;;;;5084690;28;20023;-75
2024/01/13 02:01:32;;;;;;;90.45;27.75;;;3.60;99.90;;;;;;5085728;28;20020;-76
2024/01/13 02:03:59;;;;;;;78.57;27.48;;;3.50;99.90;;;;;;5084640;28;20043;-75
2024/01/13 02:06:25;;;;;;;68.03;25.48;;;3.50;99.90;;;;;;5067217;28;20099;-75
2024/01/13 02:08:51;;;;;;;78.88;25.58;;;3.50;99.90;;;;;;5088153;28;20482;-75
2024/01/13 02:11:25;;;;;;;71.00;24.85;;;3.50;99.90;;;;;;5089810;28;20485;-75
2024/01/13 02:13:50;;;;;;;71.18;24.73;;;3.60;99.90;;;;;;5066975;28;20037;-75
2024/01/13 02:16:16;;;;;;;60.60;23.05;;;3.60;99.90;;;;;;5089920;28;20028;-76
2024/01/13 02:18:42;;;;;;;58.80;21.60;;;3.50;99.90;;;;;;5088517;28;20465;-76
2024/01/13 02:21:10;;;;;;;71.05;24.75;;;3.50;99.90;;;;;;5089327;28;20485;-76
2024/01/13 02:23:36;;;;;;;62.95;22.42;;;3.50;99.90;;;;;;5088693;28;20107;-76
2024/01/13 02:26:01;;;;;;;62.95;20.38;;;3.50;99.90;;;;;;5089341;28;20884;-76
2024/01/13 02:28:27;;;;;;;61.42;22.45;;;3.50;99.90;;;;;;5088656;28;20096;-75
2024/01/13 02:30:52;;;;;;;66.65;22.50;;;3.50;99.90;;;;;;5088961;28;20114;-76
2024/01/13 02:33:18;;;;;;;76.22;23.48;;;3.50;99.90;;;;;;5070478;28;20578;-75
2024/01/13 02:35:44;;;;;;;57.17;20.17;;;3.50;99.90;;;;;;5070344;28;20027;-75
2024/01/13 02:38:10;;;;;;;54.80;19.08;;;3.50;99.90;;;;;;5088197;28;20056;-76
2024/01/13 02:40:35;;;;;;;65.35;19.45;;;3.50;99.90;;;;;;5089116;28;20475;-75
2024/01/13 02:43:01;;;;;;;55.60;19.45;;;3.50;99.90;;;;;;5087890;28;20020;-75
2024/01/13 02:45:27;;;;;;;60.85;19.90;;;3.50;99.90;;;;;;5088703;28;20028;-76
2024/01/13 02:48:00;;;;;;;52.13;18.70;;;3.50;99.90;;;;;;5087911;28;20152;-76
2024/01/13 02:50:25;;;;;;;47.92;16.88;;;3.50;99.90;;;;;;5088922;28;20507;-76
2024/01/13 02:52:51;;;;;;;45.03;15.77;;;3.50;99.90;;;;;;5069294;28;20078;-76
2024/01/13 02:55:17;;;;;;;38.05;14.82;;;3.50;99.90;;;;;;5088691;28;20024;-76
2024/01/13 02:57:43;;;;;;;29.48;11.43;;;3.60;99.90;;;;;;5087798;28;20028;-75
2024/01/13 03:00:09;;;;;;;43.25;14.77;;;3.60;99.90;;;;;;5088771;28;20491;-75
2024/01/13 03:02:35;;;;;;;37.30;14.02;;;3.60;99.90;;;;;;5069621;28;20035;-75
2024/01/13 03:05:01;;;;;;;38.45;14.10;;;3.60;99.90;;;;;;5069748;28;20485;-76
2024/01/13 03:07:27;;;;;;;63.47;16.33;;;3.60;99.90;;;;;;5087902;28;20074;-75
2024/01/13 03:09:52;;;;;;;34.53;13.07;;;3.60;99.90;;;;;;5069491;28;20150;-76
2024/01/13 03:12:18;;;;;;;41.47;14.40;;;3.60;99.90;;;;;;5088125;28;20020;-75
2024/01/13 03:14:44;;;;;;;41.42;13.48;;;3.60;99.90;;;;;;5087416;28;20103;-75
2024/01/13 03:17:10;;;;;;;41.05;14.23;;;3.60;99.90;;;;;;5088393;28;20024;-75
2024/01/13 03:19:36;;;;;;;47.10;14.25;;;3.60;99.90;;;;;;5068896;28;20378;-75
2024/01/13 03:22:01;;;;;;;44.42;14.75;;;3.60;99.90;;;;;;5088139;28;20039;-75
2024/01/13 03:24:27;;;;;;;36.97;14.65;;;3.60;99.90;;;;;;5087853;28;20560;-75
2024/01/13 03:26:52;;;;;;;43.78;15.65;;;3.60;99.90;;;;;;5069626;28;20592;-75
2024/01/13 03:29:18;;;;;;;39.75;14.70;;;3.70;99.90;;;;;;5087394;28;20375;-75
2024/01/13 03:31:44;;;;;;;61.20;17.40;;;3.60;99.90;;;;;;5087918;28;20107;-75
2024/01/13 03:34:09;;;;;;;65.28;17.40;;;3.60;99.90;;;;;;5087015;28;20028;-75
2024/01/13 03:36:35;;;;;;;43.38;16.25;;;3.60;99.90;;;;;;5069516;28;20086;-75
2024/01/13 03:39:01;;;;;;;47.95;16.65;;;3.60;99.90;;;;;;5086911;28;20058;-75
2024/01/13 03:41:26;;;;;;;49.78;15.65;;;3.70;99.90;;;;;;5087355;28;20027;-75
2024/01/13 03:43:52;;;;;;;56.70;16.13;;;3.60;99.90;;;;;;5086935;28;20020;-75
2024/01/13 03:46:18;;;;;;;53.97;17.17;;;3.70;99.90;;;;;;5087778;28;20085;-75
2024/01/13 03:48:44;;;;;;;58.15;19.30;;;3.60;99.90;;;;;;5068332;28;20028;-74
2024/01/13 03:51:10;;;;;;;64.57;21.23;;;3.60;99.90;;;;;;5087538;28;20591;-75
2024/01/13 03:53:36;;;;;;;74.10;20.77;;;3.60;99.90;;;;;;5068496;28;20056;-75
2024/01/13 03:56:05;;;;;;;90.15;23.25;;;3.60;99.90;;;;;;5087060;28;20031;-75
2024/01/13 03:58:31;;;;;;;71.03;21.00;;;3.60;99.90;;;;;;5072878;28;20016;-75
2024/01/13 04:00:57;;;;;;;100.82;25.02;;;3.60;99.90;;;;;;5087102;28;20024;-75
2024/01/13 04:03:23;;;;;;;87.47;23.33;;;3.60;99.90;;;;;;5068090;28;20025;-75
2024/01/13 04:05:49;;;;;;;82.57;24.55;;;3.70;99.90;;;;;;5087155;28;20050;-74
2024/01/13 04:08:14;;;;;;;76.97;25.17;;;3.60;99.90;;;;;;5050825;28;20497;-75
2024/01/13 04:10:40;;;;;;;77.63;25.98;;;3.60;99.90;;;;;;5087271;28;20470;-75
2024/01/13 04:13:10;;;;;;;79.43;25.45;;;3.60;99.90;;;;;;5086214;28;20032;-74
2024/01/13 04:15:36;;;;;;;84.05;25.27;;;3.70;99.90;;;;;;5068978;28;20044;-75
2024/01/13 04:18:01;;;;;;;80.47;24.67;;;3.70;99.90;;;;;;5086504;28;20109;-75
2024/01/13 04:20:27;;;;;;;76.00;27.65;;;3.60;99.90;;;;;;5086941;28;20560;-75
2024/01/13 04:22:53;;;;;;;83.45;29.55;;;3.60;99.90;;;;;;5086207;28;20019;-75
2024/01/13 04:25:18;;;;;;;78.78;27.13;;;3.70;99.90;;;;;;5068703;28;20032;-75
2024/01/13 04:27:44;;;;;;;100.82;29.42;;;3.60;99.90;;;;;;5085930;28;20016;-74
2024/01/13 04:30:11;;;;;;;92.93;27.25;;;3.70;99.90;;;;;;5086317;28;20020;-75
2024/01/13 04:32:38;;;;;;;86.93;29.38;;;3.70;99.90;;;;;;5086548;28;20428;-74
2024/01/13 04:35:04;;;;;;;78.80;26.63;;;3.60;99.90;;;;;;5086254;28;20389;-74
2024/01/13 04:37:30;;;;;;;75.03;29.45;;;3.70;99.90;;;;;;5086626;28;20552;-74
2024/01/13 04:39:55;;;;;;;80.43;27.65;;;3.70;99.90;;;;;;5085447;28;20459;-74
2024/01/13 04:42:21;;;;;;;69.70;26.75;;;3.70;99.90;;;;;;5068511;28;20115;-74
2024/01/13 04:44:46;;;;;;;104.40;31.67;;;3.70;99.90;;;;;;5085692;28;20476;-74
2024/01/13 04:47:12;;;;;;;95.32;30.63;;;3.70;99.90;;;;;;5087014;28;20462;-74
2024/01/13 04:49:38;;;;;;;86.00;29.77;;;3.70;99.90;;;;;;5085460;28;20024;-74
2024/01/13 04:52:04;;;;;;;82.18;30.52;;;3.70;99.90;;;;;;5086229;28;20052;-74
2024/01/13 04:54:29;;;;;;;80.30;27.88;;;3.70;99.90;;;;;;5067740;28;20043;-74
2024/01/13 04:56:55;;;;;;;69.82;28.40;;;3.70;99.90;;;;;;5067848;28;20055;-73
2024/01/13 04:59:21;;;;;;;82.88;28.83;;;3.70;99.90;;;;;;5067433;28;20042;-73
2024/01/13 05:01:46;;;;;;;94.57;30.88;;;3.70;99.90;;;;;;5085678;28;20032;-73
2024/01/13 05:04:12;;;;;;;88.47;30.95;;;3.70;99.90;;;;;;5085569;28;20434;-73
2024/01/13 05:06:37;;;;;;;95.57;31.40;;;3.70;99.90;;;;;;5085933;28;20453;-73
2024/01/13 05:09:04;;;;;;;74.32;27.50;;;3.70;99.90;;;;;;5084991;28;20027;-76
2024/01/13 05:11:30;;;;;;;80.05;25.88;;;3.70;99.90;;;;;;5067937;28;20024;-76
2024/01/13 05:13:55;;;;;;;72.53;27.40;;;3.70;99.90;;;;;;5085029;28;20062;-73
2024/01/13 05:16:21;;;;;;;84.60;30.30;;;3.70;99.90;;;;;;5086207;28;20032;-73
2024/01/13 05:18:47;;;;;;;80.70;30.02;;;3.70;99.90;;;;;;5085040;28;20389;-73
2024/01/13 05:21:12;;;;;;;77.43;30.17;;;3.70;99.90;;;;;;5085922;28;20381;-73
2024/01/13 05:23:38;;;;;;;78.82;31.27;;;3.70;99.90;;;;;;5067081;28;20044;-73
2024/01/13 05:26:04;;;;;;;85.47;33.22;;;3.70;99.90;;;;;;5085589;28;20016;-73
2024/01/13 05:28:29;;;;;;;81.53;29.65;;;3.70;99.90;;;;;;5085264;28;20028;-73
2024/01/13 05:30:55;;;;;;;93.63;31.80;;;3.70;99.90;;;;;;5085313;28;20099;-74
2024/01/13 05:33:21;;;;;;;81.63;29.13;;;3.70;99.90;;;;;;5067375;28;20073;-74
2024/01/13 05:35:46;;;;;;;89.57;30.38;;;3.70;99.90;;;;;;5085628;28;20462;-74
2024/01/13 05:38:12;;;;;;;105.20;32.20;;;3.70;99.90;;;;;;5085252;28;20047;-74
2024/01/13 05:40:43;;;;;;;72.25;29.17;;;3.70;99.90;;;;;;5085725;28;20034;-74
2024/01/13 05:43:09;;;;;;;100.97;31.48;;;3.70;99.90;;;;;;5066652;28;20031;-74
2024/01/13 05:45:35;;;;;;;63.00;25.50;;;3.70;99.90;;;;;;5085808;28;20024;-74
2024/01/13 05:48:01;;;;;;;58.85;24.33;;;3.70;99.90;;;;;;5084728;28;20020;-74
2024/01/13 05:50:27;;;;;;;83.00;29.58;;;3.70;99.90;;;;;;5085542;28;20157;-74
2024/01/13 05:52:53;;;;;;;73.05;27.95;;;3.70;99.90;;;;;;5066818;28;20449;-74
2024/01/13 05:55:18;;;;;;;86.35;29.77;;;3.70;99.90;;;;;;5067103;28;20740;-74
2024/01/13 05:57:44;;;;;;;84.45;29.98;;;3.70;99.90;;;;;;5067184;28;20020;-76
2024/01/13 06:00:10;;;;;;;85.13;28.45;;;3.70;99.90;;;;;;5084889;28;20028;-73
2024/01/13 06:02:36;;;;;;;58.20;23.58;;;3.70;99.90;;;;;;5067083;28;20500;-74
2024/01/13 06:05:01;;;;;;;68.63;25.17;;;3.70;99.90;;;;;;5084712;28;20016;-74
2024/01/13 06:07:27;;;;;;;72.57;28.05;;;3.70;99.90;;;;;;5085676;28;20370;-74
2024/01/13 06:09:53;;;;;;;61.58;22.70;;;3.70;99.90;;;;;;5084813;28;20119;-74
2024/01/13 06:12:20;;;;;;;66.30;25.10;;;3.70;99.90;;;;;;5085263;28;20050;-74
2024/01/13 06:14:45;;;;;;;54.05;21.95;;;3.70;99.90;;;;;;5084744;28;20027;-73
2024/01/13 06:17:11;;;;;;;51.78;21.30;;;3.70;99.90;;;;;;5085129;28;20032;-73
2024/01/13 06:19:37;;;;;;;61.08;23.42;;;3.70;99.90;;;;;;5084869;28;20139;-74
2024/01/13 06:22:03;;;;;;;54.45;21.55;;;3.70;99.90;;;;;;5084775;28;20486;-74
2024/01/13 06:24:28;;;;;;;56.83;21.75;;;3.70;99.90;;;;;;5084807;28;20422;-74
2024/01/13 06:26:54;;;;;;;67.03;25.23;;;3.70;99.90;;;;;;5085394;28;20111;-73
2024/01/13 06:29:19;;;;;;;70.03;24.58;;;3.70;99.90;;;;;;5084659;28;20031;-74
2024/01/13 06:31:45;;;;;;;68.70;23.98;;;3.70;99.90;;;;;;5067076;28;20055;-73
2024/01/13 06:34:11;;;;;;;65.97;22.65;;;3.70;99.90;;;;;;5084425;28;20028;-74
2024/01/13 06:36:36;;;;;;;70.93;22.75;;;3.70;99.90;;;;;;5066905;28;20035;-73
2024/01/13 06:39:02;;;;;;;69.47;21.80;;;3.70;99.90;;;;;;5084172;28;20020;-74
2024/01/13 06:41:28;;;;;;;84.97;26.00;;;3.70;99.90;;;;;;5070862;28;20024;-74
2024/01/13 06:43:53;;;;;;;71.72;24.92;;;3.80;99.90;;;;;;5083023;28;20017;-74
2024/01/13 06:46:19;;;;;;;73.30;23.30;;;3.70;99.90;;;;;;5085270;28;20032;-73
2024/01/13 06:48:45;;;;;;;64.72;20.55;;;3.70;99.90;;;;;;5065983;28;20115;-73
2024/01/13 06:51:11;;;;;;;59.55;21.40;;;3.70;99.90;;;;;;5085021;28;20036;-73
2024/01/13 06:53:36;;;;;;;55.63;19.13;;;3.70;99.90;;;;;;5085633;28;20607;-74
2024/01/13 06:56:03;;;;;;;64.65;21.45;;;3.70;99.90;;;;;;5088738;28;20027;-74
2024/01/13 06:58:28;;;;;;;68.63;21.35;;;3.70;99.90;;;;;;5087682;28;20032;-73
2024/01/13 07:00:54;;;;;;;77.78;21.75;;;3.70;99.90;;;;;;5088184;28;20065;-74
2024/01/13 07:03:20;;;;;;;71.32;19.67;;;3.80;99.90;;;;;;5088052;28;20461;-73
2024/01/13 07:05:45;;;;;;;66.05;20.67;;;3.80;99.90;;;;;;5087865;28;20078;-74
2024/01/13 07:08:11;;;;;;;70.97;21.60;;;3.80;99.90;;;;;;5088089;28;20039;-74
2024/01/13 07:10:36;;;;;;;73.63;21.13;;;3.80;99.90;;;;;;5088403;28;20039;-74
2024/01/13 07:13:02;;;;;;;85.75;20.27;;;3.80;99.90;;;;;;5088516;28;20028;-73
2024/01/13 07:15:28;;;;;;;81.60;21.83;;;3.80;99.90;;;;;;5069311;28;20485;-74
2024/01/13 07:17:53;;;;;;;73.07;19.90;;;3.80;99.90;;;;;;5088437;28;20070;-74
2024/01/13 07:20:19;;;;;;;76.18;20.27;;;3.80;99.90;;;;;;5085404;28;20550;-74
2024/01/13 07:22:46;;;;;;;78.03;21.63;;;3.80;99.90;;;;;;5087638;28;20032;-74
2024/01/13 07:25:12;;;;;;;94.15;21.10;;;3.80;99.90;;;;;;5087894;28;20020;-74
2024/01/13 07:27:37;;;;;;;86.28;20.65;;;3.90;99.90;;;;;;5069856;28;20401;-73
2024/01/13 07:30:04;;;;;;;95.32;20.45;;;3.80;99.90;;;;;;5066583;28;20139;-74
2024/01/13 07:32:30;;;;;;;74.10;21.05;;;3.80;99.90;;;;;;5059305;28;20488;-74
2024/01/13 07:34:55;;;;;;;92.32;23.00;;;3.90;99.90;;;;;;5086927;28;20024;-73
2024/01/13 07:37:21;;;;;;;92.05;22.20;;;3.90;99.90;;;;;;5087546;28;20028;-73
2024/01/13 07:39:47;;;;;;;109.20;22.08;;;3.90;99.90;;;;;;5086720;28;20302;-73
2024/01/13 07:42:12;;;;;;;87.40;21.75;;;3.90;99.90;;;;;;5069592;28;20016;-74
2024/01/13 07:44:41;;;;;;;91.47;21.65;;;3.90;99.90;;;;;;5086948;28;20058;-74
2024/01/13 07:47:06;;;;;;;80.32;21.88;;;3.90;99.90;;;;;;5087435;28;20024;-73
2024/01/13 07:49:32;;;;;;;74.22;21.50;;;3.90;99.90;;;;;;5087093;28;20054;-74
2024/01/13 07:51:58;;;;;;;101.63;21.15;;;3.90;99.90;;;;;;5087334;28;20016;-74
2024/01/13 07:54:24;;;;;;;102.78;22.23;;;3.90;99.90;;;;;;5086611;28;20123;-73
2024/01/13 07:56:50;;;;;;;100.63;22.92;;;3.90;99.90;;;;;;5086310;28;20066;-76
2024/01/13 07:59:17;;;;;;;102.90;22.67;;;3.90;99.90;;;;;;5086028;28;20043;-73
2024/01/13 08:01:43;;;;;;;115.10;24.52;;;3.90;99.90;;;;;;5087017;28;20024;-73
2024/01/13 08:04:08;;;;;;;95.40;22.52;;;4.00;99.90;;;;;;5086249;28;20399;-74
2024/01/13 08:06:35;;;;;;;85.93;22.92;;;3.90;99.90;;;;;;5086150;28;20012;-74
2024/01/13 08:09:01;;;;;;;104.72;24.85;;;4.00;99.90;;;;;;5065618;28;20038;-75
2024/01/13 08:11:26;;;;;;;97.90;23.23;;;4.00;99.90;;;;;;5061303;28;20032;-75
2024/01/13 08:13:52;;;;;;;116.32;25.98;;;3.90;99.90;;;;;;5074421;28;20450;-74
2024/01/13 08:16:18;;;;;;;87.78;23.25;;;3.90;99.90;;;;;;5067961;28;20028;-75
2024/01/13 08:18:43;;;;;;;107.38;25.08;;;4.00;99.90;;;;;;5085650;28;20291;-74
2024/01/13 08:21:09;;;;;;;85.65;25.52;;;3.90;99.90;;;;;;5086730;28;20024;-74
2024/01/13 08:23:35;;;;;;;92.53;25.67;;;3.90;99.90;;;;;;5086369;28;20016;-74
2024/01/13 08:26:02;;;;;;;70.28;23.17;;;3.90;99.90;;;;;;5086325;28;20024;-75
2024/01/13 08:28:28;;;;;;;90.57;24.27;;;4.00;99.90;;;;;;5066711;28;20039;-74
2024/01/13 08:30:54;;;;;;;74.32;21.08;;;4.00;99.90;;;;;;5083106;28;20058;-74
2024/01/13 08:33:19;;;;;;;76.55;23.77;;;4.00;99.90;;;;;;5086512;28;20396;-74
2024/01/13 08:35:45;;;;;;;78.25;26.10;;;4.00;99.90;;;;;;5084191;28;20028;-74
2024/01/13 08:38:12;;;;;;;81.47;23.70;;;4.00;99.90;;;;;;5083562;28;20527;-75
2024/01/13 08:40:39;;;;;;;98.13;26.00;;;4.00;99.90;;;;;;5063883;28;20043;-75
2024/01/13 08:43:05;;;;;;;86.18;25.58;;;4.00;99.90;;;;;;5073102;28;20024;-74
2024/01/13 08:45:31;;;;;;;92.28;28.13;;;4.00;99.90;;;;;;5084932;28;20559;-76
2024/01/13 08:47:57;;;;;;;92.13;26.95;;;4.00;99.90;;;;;;5085444;28;20500;-74
2024/01/13 08:50:23;;;;;;;77.65;24.85;;;4.00;99.90;;;;;;5085569;28;20020;-74
2024/01/13 08:52:51;;;;;;;86.72;25.58;;;4.00;99.90;;;;;;5085676;28;20040;-74
2024/01/13 08:55:18;;;;;;;83.80;24.58;;;4.10;99.90;;;;;;5086091;28;20428;-73
2024/01/13 08:57:44;;;;;;;86.95;26.63;;;4.10;99.90;;;;;;5086015;28;20012;-73
2024/01/13 09:00:10;;;;;;;86.35;25.63;;;4.10;99.90;;;;;;5067237;28;20027;-73
2024/01/13 09:02:39;;;;;;;92.03;26.80;;;4.10;99.90;;;;;;5086546;28;20016;-73
2024/01/13 09:05:07;;;;;;;61.00;23.45;;;4.00;99.90;;;;;;5065196;28;20021;-74
2024/01/13 09:07:34;;;;;;;80.13;25.90;;;4.10;99.90;;;;;;5068036;28;20043;-73
2024/01/13 09:10:00;;;;;;;64.20;24.10;;;4.10;99.90;;;;;;5084940;28;20599;-74
2024/01/13 09:12:26;;;;;;;78.88;23.50;;;4.10;99.90;;;;;;5086109;28;20101;-73
2024/01/13 09:14:51;;;;;;;59.40;23.50;;;4.10;99.90;;;;;;5067186;28;20035;-74
2024/01/13 09:17:17;;;;;;;70.63;24.77;;;4.10;99.90;;;;;;5085627;28;20489;-74
2024/01/13 09:19:43;;;;;;;67.45;25.45;;;4.10;99.90;;;;;;5066813;28;20532;-73
2024/01/13 09:22:09;;;;;;;72.90;25.73;;;4.10;99.90;;;;;;5085934;28;20024;-73
2024/01/13 09:24:35;;;;;;;62.80;22.80;;;4.10;99.90;;;;;;5075996;28;20024;-73
2024/01/13 09:27:00;;;;;;;69.65;23.75;;;4.10;99.90;;;;;;5078081;28;20062;-73
2024/01/13 09:29:26;;;;;;;63.28;24.48;;;4.10;99.90;;;;;;5083796;28;20100;-74
2024/01/13 09:31:52;;;;;;;53.33;21.65;;;4.10;99.90;;;;;;5061666;28;20059;-74
2024/01/13 09:34:17;;;;;;;70.72;24.85;;;4.10;99.90;;;;;;5085022;28;20752;-73
2024/01/13 09:36:44;;;;;;;64.30;23.73;;;4.10;99.90;;;;;;5085129;28;20039;-73
2024/01/13 09:39:14;;;;;;;64.97;23.95;;;4.10;99.90;;;;;;5066334;28;20021;-74
2024/01/13 09:41:47;;;;;;;56.78;22.95;;;4.10;99.90;;;;;;5085327;28;20035;-74
2024/01/13 09:44:41;;;;;;;62.33;25.60;;;4.20;99.90;;;;;;5066540;28;20035;-74
2024/01/13 09:47:08;;;;;;;61.92;23.42;;;4.10;99.90;;;;;;5082887;28;20058;-74
2024/01/13 09:49:34;;;;;;;51.92;23.55;;;4.10;99.90;;;;;;5066209;28;20024;-73
2024/01/13 09:52:00;;;;;;;41.20;19.98;;;4.10;99.90;;;;;;5070530;28;20868;-74
2024/01/13 09:54:30;;;;;;;55.72;22.83;;;4.10;99.90;;;;;;5085038;28;20031;-75
2024/01/13 09:56:57;;;;;;;37.65;18.27;;;4.10;99.90;;;;;;5085099;28;20020;-73
2024/01/13 09:59:25;;;;;;;43.78;20.52;;;4.10;99.90;;;;;;5085064;28;20108;-74
2024/01/13 10:01:52;;;;;;;48.97;20.08;;;4.10;99.90;;;;;;5085140;28;20012;-73
2024/01/13 10:04:18;;;;;;;35.80;17.63;;;4.10;99.90;;;;;;5084316;28;20065;-74
2024/01/13 10:06:47;;;;;;;40.22;19.10;;;4.20;99.90;;;;;;5083726;28;20532;-74
2024/01/13 10:09:13;;;;;;;40.53;19.38;;;4.10;99.90;;;;;;5079970;28;20024;-74
2024/01/13 10:11:38;;;;;;;40.00;19.48;;;4.10;99.90;;;;;;5081834;28;20028;-74
2024/01/13 10:14:05;;;;;;;43.53;19.23;;;4.10;99.90;;;;;;5071039;28;20024;-75
2024/01/13 10:16:33;;;;;;;49.60;21.40;;;4.20;99.90;;;;;;5085133;28;20031;-74
2024/01/13 10:19:04;;;;;;;46.72;19.90;;;4.20;99.90;;;;;;5082161;28;20028;-73
2024/01/13 10:21:30;;;;;;;45.30;22.55;;;4.20;99.90;;;;;;5073243;28;20071;-73
2024/01/13 10:23:57;;;;;;;46.38;20.63;;;4.20;99.90;;;;;;5063657;28;20084;-73
2024/01/13 10:26:28;;;;;;;41.60;18.63;;;4.20;99.90;;;;;;5065736;28;20111;-73
2024/01/13 10:28:58;;;;;;;46.65;19.88;;;4.20;99.90;;;;;;5068241;28;20020;-73
2024/01/13 10:31:24;;;;;;;44.25;19.35;;;4.20;99.90;;;;;;5088904;28;20161;-74
2024/01/13 10:33:51;;;;;;;50.78;20.13;;;4.20;99.90;;;;;;5088088;28;20020;-73
2024/01/13 10:36:28;;;;;;;47.65;20.83;;;4.20;99.90;;;;;;5083990;28;20081;-73
2024/01/13 10:38:57;;;;;;;48.20;20.13;;;4.20;99.90;;;;;;5084631;28;20020;-75
2024/01/13 10:41:30;;;;;;;46.13;20.63;;;4.20;99.90;;;;;;5085730;28;20029;-73
2024/01/13 10:43:56;;;;;;;50.70;21.67;;;4.20;99.90;;;;;;5081547;28;20016;-73
2024/01/13 10:46:24;;;;;;;45.05;22.05;;;4.20;99.90;;;;;;5080403;28;20086;-73
2024/01/13 10:48:53;;;;;;;52.50;21.15;;;4.20;99.90;;;;;;5066118;28;20024;-74
2024/01/13 10:51:37;;;;;;;46.08;20.30;;;4.20;99.90;;;;;;5084029;28;20028;-74
2024/01/13 10:54:04;;;;;;;50.70;21.48;;;4.20;99.90;;;;;;5087144;28;20469;-73
2024/01/13 10:56:30;;;;;;;46.83;22.02;;;4.20;99.90;;;;;;5080943;28;20107;-74
2024/01/13 10:58:58;;;;;;;38.25;19.77;;;4.20;99.90;;;;;;5077142;28;20024;-74
2024/01/13 11:01:25;;;;;;;38.28;19.58;;;4.20;99.90;;;;;;5057201;28;20020;-74
2024/01/13 11:03:51;;;;;;;38.03;19.83;;;4.20;99.90;;;;;;5070551;28;20020;-74
2024/01/13 11:06:17;;;;;;;38.65;19.23;;;4.20;99.90;;;;;;5071705;28;20792;-74
2024/01/13 11:08:44;;;;;;;33.08;18.67;;;4.20;99.90;;;;;;5073147;28;20039;-74
2024/01/13 11:11:12;;;;;;;32.33;17.80;;;4.20;99.90;;;;;;5080069;28;20028;-73
2024/01/13 11:13:42;;;;;;;35.40;18.13;;;4.20;99.90;;;;;;5082330;28;20032;-73
2024/01/13 11:16:14;;;;;;;33.00;17.85;;;4.20;99.90;;;;;;5067106;28;20077;-72
2024/01/13 11:18:49;;;;;;;28.98;15.88;;;4.20;99.90;;;;;;5086648;28;20032;-73
2024/01/13 11:21:22;;;;;;;34.10;18.27;;;4.20;99.90;;;;;;5085263;28;20031;-73
2024/01/13 11:23:58;;;;;;;30.75;17.33;;;4.20;99.90;;;;;;5086044;28;20020;-74
2024/01/13 11:26:38;;;;;;;31.92;17.95;;;4.20;99.90;;;;;;5073579;28;20028;-73
2024/01/13 11:29:24;;;;;;;33.28;15.85;;;4.20;99.90;;;;;;5066936;28;20100;-74
2024/01/13 11:31:58;;;;;;;30.42;16.38;;;4.20;99.90;;;;;;5085657;28;20568;-73
2024/01/13 11:34:26;;;;;;;28.13;14.95;;;4.20;99.90;;;;;;5083352;28;20020;-73
2024/01/13 11:36:56;;;;;;;38.63;18.92;;;4.20;99.90;;;;;;5067645;28;20119;-74
2024/01/13 11:39:22;;;;;;;31.95;16.33;;;4.10;99.90;;;;;;5085378;28;20017;-74
2024/01/13 11:41:54;;;;;;;31.98;17.20;;;4.20;99.90;;;;;;5082935;28;20526;-74
2024/01/13 11:44:30;;;;;;;33.05;16.27;;;4.20;99.90;;;;;;5077104;28;20052;-74
2024/01/13 11:47:06;;;;;;;33.17;17.90;;;4.20;99.90;;;;;;5086958;28;20089;-75
2024/01/13 11:49:33;;;;;;;36.70;18.10;;;4.20;99.90;;;;;;5086908;28;20027;-75
2024/01/13 11:51:59;;;;;;;34.08;17.38;;;4.20;99.90;;;;;;5086401;28;20024;-75
2024/01/13 11:54:26;;;;;;;35.25;17.85;;;4.20;99.90;;;;;;5066566;28;20105;-76
2024/01/13 11:56:52;;;;;;;36.03;18.35;;;4.20;99.90;;;;;;5087108;28;20019;-75
2024/01/13 11:59:20;;;;;;;38.20;18.58;;;4.20;99.90;;;;;;5086322;28;20028;-74
2024/01/13 12:01:46;;;;;;;33.17;17.67;;;4.20;99.90;;;;;;5086497;28;20043;-74
2024/01/13 12:04:15;;;;;;;38.25;19.65;;;4.20;99.90;;;;;;5067942;28;20602;-74
2024/01/13 12:06:42;;;;;;;39.03;18.80;;;4.20;99.90;;;;;;5087106;28;20024;-74
2024/01/13 12:09:08;;;;;;;35.13;18.58;;;4.20;99.90;;;;;;5085255;28;20069;-74
2024/01/13 12:11:34;;;;;;;39.95;19.15;;;4.20;99.90;;;;;;5085901;28;20112;-74
2024/01/13 12:14:03;;;;;;;36.38;18.85;;;4.20;99.90;;;;;;5086758;28;20115;-75
2024/01/13 12:16:29;;;;;;;39.88;19.27;;;4.20;99.90;;;;;;5080925;28;20016;-74
2024/01/13 12:18:55;;;;;;;39.70;20.08;;;4.20;99.90;;;;;;5083172;28;20362;-73
2024/01/13 12:21:22;;;;;;;36.60;21.17;;;4.20;99.90;;;;;;5069714;28;20032;-75
2024/01/13 12:23:48;;;;;;;43.35;21.60;;;4.20;99.90;;;;;;5080256;28;20024;-74
2024/01/13 12:26:14;;;;;;;39.33;20.35;;;4.30;99.90;;;;;;5078450;28;20031;-73
2024/01/13 12:28:42;;;;;;;41.85;21.45;;;4.30;99.90;;;;;;5084451;28;20054;-75
2024/01/13 12:31:09;;;;;;;43.47;22.45;;;4.30;99.90;;;;;;5067666;28;20353;-75
2024/01/13 12:33:35;;;;;;;44.75;23.23;;;4.30;99.90;;;;;;5069351;28;20031;-75